sensor_id;sensor_type;location;lat;lon;timestamp;temperature;humidity
46706;DHT22;33519;50.712;7.124;2023-04-25T00:01:48;7.80;99.90
46706;DHT22;33519;50.712;7.124;2023-04-25T00:04:15;7.80;99.90
46706;DHT22;33519;50.712;7.124;2023-04-25T00:06:42;7.80;99.90
46706;DHT22;33519;50.712;7.124;2023-04-25T00:09:08;7.70;99.90
46706;DHT22;33519;50.712;7.124;2023-04-25T00:11:36;7.70;99.90
46706;DHT22;33519;50.712;7.124;2023-04-25T00:14:04;7.70;99.90
46706;DHT22;33519;50.712;7.124;2023-04-25T00:16:30;7.60;99.90
46706;DHT22;33519;50.712;7.124;2023-04-25T00:19:00;7.50;99.90
46706;DHT22;33519;50.712;7.124;2023-04-25T00:21:27;7.50;99.90
46706;DHT22;33519;50.712;7.124;2023-04-25T00:23:55;7.40;99.90
46706;DHT22;33519;50.712;7.124;2023-04-25T00:26:21;7.30;99.90
46706;DHT22;33519;50.712;7.124;2023-04-25T00:28:48;7.30;99.90
46706;DHT22;33519;50.712;7.124;2023-04-25T00:31:15;7.30;99.90
46706;DHT22;33519;50.712;7.124;2023-04-25T00:33:41;7.20;99.90
46706;DHT22;33519;50.712;7.124;2023-04-25T00:36:08;7.20;99.90
46706;DHT22;33519;50.712;7.124;2023-04-25T00:38:35;7.20;99.90
46706;DHT22;33519;50.712;7.124;2023-04-25T00:41:02;7.20;99.90
46706;DHT22;33519;50.712;7.124;2023-04-25T00:43:28;7.20;99.90
46706;DHT22;33519;50.712;7.124;2023-04-25T00:45:56;7.20;99.90
46706;DHT22;33519;50.712;7.124;2023-04-25T00:48:23;7.10;99.90
46706;DHT22;33519;50.712;7.124;2023-04-25T00:50:54;7.10;99.90
46706;DHT22;33519;50.712;7.124;2023-04-25T00:53:21;7.10;99.90
46706;DHT22;33519;50.712;7.124;2023-04-25T00:55:49;7.10;99.90
46706;DHT22;33519;50.712;7.124;2023-04-25T00:58:17;7.00;99.90
46706;DHT22;33519;50.712;7.124;2023-04-25T01:00:45;7.00;99.90
46706;DHT22;33519;50.712;7.124;2023-04-25T01:03:12;6.90;99.90
46706;DHT22;33519;50.712;7.124;2023-04-25T01:05:42;6.90;99.90
46706;DHT22;33519;50.712;7.124;2023-04-25T01:08:09;6.90;99.90
46706;DHT22;33519;50.712;7.124;2023-04-25T01:10:36;6.90;99.90
46706;DHT22;33519;50.712;7.124;2023-04-25T01:13:03;6.80;99.90
46706;DHT22;33519;50.712;7.124;2023-04-25T01:15:29;6.70;99.90
46706;DHT22;33519;50.712;7.124;2023-04-25T01:17:57;6.70;99.90
46706;DHT22;33519;50.712;7.124;2023-04-25T01:20:24;6.60;99.90
46706;DHT22;33519;50.712;7.124;2023-04-25T01:22:51;6.60;99.90
46706;DHT22;33519;50.712;7.124;2023-04-25T01:25:18;6.60;99.90
46706;DHT22;33519;50.712;7.124;2023-04-25T01:27:45;6.60;99.90
46706;DHT22;33519;50.712;7.124;2023-04-25T01:30:12;6.50;99.90
46706;DHT22;33519;50.712;7.124;2023-04-25T01:32:39;6.50;99.90
46706;DHT22;33519;50.712;7.124;2023-04-25T01:35:08;6.40;99.90
46706;DHT22;33519;50.712;7.124;2023-04-25T01:37:39;6.40;99.90
46706;DHT22;33519;50.712;7.124;2023-04-25T01:40:06;6.40;99.90
46706;DHT22;33519;50.712;7.124;2023-04-25T01:42:34;6.30;99.90
46706;DHT22;33519;50.712;7.124;2023-04-25T01:45:01;6.30;99.90
46706;DHT22;33519;50.712;7.124;2023-04-25T01:47:28;6.20;99.90
46706;DHT22;33519;50.712;7.124;2023-04-25T01:49:58;6.20;99.90
46706;DHT22;33519;50.712;7.124;2023-04-25T01:52:24;6.20;99.90
46706;DHT22;33519;50.712;7.124;2023-04-25T01:54:51;6.20;99.90
46706;DHT22;33519;50.712;7.124;2023-04-25T01:57:19;6.20;99.90
46706;DHT22;33519;50.712;7.124;2023-04-25T01:59:46;6.20;99.90
46706;DHT22;33519;50.712;7.124;2023-04-25T02:02:12;6.20;99.90
46706;DHT22;33519;50.712;7.124;2023-04-25T02:04:39;6.20;99.90
46706;DHT22;33519;50.712;7.124;2023-04-25T02:07:06;6.10;99.90
46706;DHT22;33519;50.712;7.124;2023-04-25T02:09:32;6.10;99.90
46706;DHT22;33519;50.712;7.124;2023-04-25T02:11:59;6.10;99.90
46706;DHT22;33519;50.712;7.124;2023-04-25T02:14:26;6.10;99.90
46706;DHT22;33519;50.712;7.124;2023-04-25T02:16:52;6.00;99.90
46706;DHT22;33519;50.712;7.124;2023-04-25T02:19:19;6.00;99.90
46706;DHT22;33519;50.712;7.124;2023-04-25T02:21:45;6.00;99.90
46706;DHT22;33519;50.712;7.124;2023-04-25T02:24:15;5.90;99.90
46706;DHT22;33519;50.712;7.124;2023-04-25T02:26:42;6.00;99.90
46706;DHT22;33519;50.712;7.124;2023-04-25T02:29:09;6.00;99.90
46706;DHT22;33519;50.712;7.124;2023-04-25T02:31:35;5.90;99.90
46706;DHT22;33519;50.712;7.124;2023-04-25T02:34:02;5.90;99.90
46706;DHT22;33519;50.712;7.124;2023-04-25T02:36:29;5.90;99.90
46706;DHT22;33519;50.712;7.124;2023-04-25T02:38:58;5.90;99.90
46706;DHT22;33519;50.712;7.124;2023-04-25T02:41:25;5.90;99.90
46706;DHT22;33519;50.712;7.124;2023-04-25T02:43:51;5.90;99.90
46706;DHT22;33519;50.712;7.124;2023-04-25T02:46:18;5.90;99.90
46706;DHT22;33519;50.712;7.124;2023-04-25T02:48:57;5.90;99.90
46706;DHT22;33519;50.712;7.124;2023-04-25T02:51:24;5.80;99.90
46706;DHT22;33519;50.712;7.124;2023-04-25T02:53:51;5.80;99.90
46706;DHT22;33519;50.712;7.124;2023-04-25T02:56:18;5.80;99.90
46706;DHT22;33519;50.712;7.124;2023-04-25T02:58:47;5.80;99.90
46706;DHT22;33519;50.712;7.124;2023-04-25T03:01:14;5.80;99.90
46706;DHT22;33519;50.712;7.124;2023-04-25T03:03:41;5.80;99.90
46706;DHT22;33519;50.712;7.124;2023-04-25T03:06:07;5.80;99.90
46706;DHT22;33519;50.712;7.124;2023-04-25T03:08:34;5.80;99.90
46706;DHT22;33519;50.712;7.124;2023-04-25T03:11:01;5.80;99.90
46706;DHT22;33519;50.712;7.124;2023-04-25T03:13:27;5.80;99.90
46706;DHT22;33519;50.712;7.124;2023-04-25T03:15:56;5.70;99.90
46706;DHT22;33519;50.712;7.124;2023-04-25T03:18:22;5.70;99.90
46706;DHT22;33519;50.712;7.124;2023-04-25T03:20:50;5.60;99.90
46706;DHT22;33519;50.712;7.124;2023-04-25T03:23:16;5.70;99.90
46706;DHT22;33519;50.712;7.124;2023-04-25T03:25:43;5.60;99.90
46706;DHT22;33519;50.712;7.124;2023-04-25T03:28:10;5.60;99.90
46706;DHT22;33519;50.712;7.124;2023-04-25T03:30:38;5.60;99.90
46706;DHT22;33519;50.712;7.124;2023-04-25T03:33:05;5.60;99.90
46706;DHT22;33519;50.712;7.124;2023-04-25T03:35:31;5.50;99.90
46706;DHT22;33519;50.712;7.124;2023-04-25T03:37:58;5.60;99.90
46706;DHT22;33519;50.712;7.124;2023-04-25T03:40:24;5.60;99.90
46706;DHT22;33519;50.712;7.124;2023-04-25T03:42:51;5.60;99.90
46706;DHT22;33519;50.712;7.124;2023-04-25T03:45:17;5.60;99.90
46706;DHT22;33519;50.712;7.124;2023-04-25T03:47:44;5.60;99.90
46706;DHT22;33519;50.712;7.124;2023-04-25T03:50:10;5.60;99.90
46706;DHT22;33519;50.712;7.124;2023-04-25T03:52:37;5.60;99.90
46706;DHT22;33519;50.712;7.124;2023-04-25T03:55:04;5.70;99.90
46706;DHT22;33519;50.712;7.124;2023-04-25T03:57:31;5.70;99.90
46706;DHT22;33519;50.712;7.124;2023-04-25T03:59:57;5.70;99.90
46706;DHT22;33519;50.712;7.124;2023-04-25T04:02:24;5.80;99.90
46706;DHT22;33519;50.712;7.124;2023-04-25T04:04:50;5.80;99.90
46706;DHT22;33519;50.712;7.124;2023-04-25T04:07:17;5.80;99.90
46706;DHT22;33519;50.712;7.124;2023-04-25T04:09:44;5.80;99.90
46706;DHT22;33519;50.712;7.124;2023-04-25T04:12:10;5.90;99.90
46706;DHT22;33519;50.712;7.124;2023-04-25T04:14:37;5.90;99.90
46706;DHT22;33519;50.712;7.124;2023-04-25T04:17:03;5.90;99.90
46706;DHT22;33519;50.712;7.124;2023-04-25T04:19:30;5.90;99.90
46706;DHT22;33519;50.712;7.124;2023-04-25T04:21:56;5.90;99.90
46706;DHT22;33519;50.712;7.124;2023-04-25T04:24:23;5.90;99.90
46706;DHT22;33519;50.712;7.124;2023-04-25T04:26:50;6.00;99.90
46706;DHT22;33519;50.712;7.124;2023-04-25T04:29:17;6.00;99.90
46706;DHT22;33519;50.712;7.124;2023-04-25T04:31:48;6.00;99.90
46706;DHT22;33519;50.712;7.124;2023-04-25T04:34:14;6.00;99.90
46706;DHT22;33519;50.712;7.124;2023-04-25T04:36:44;6.00;99.90
46706;DHT22;33519;50.712;7.124;2023-04-25T04:39:12;6.10;99.90
46706;DHT22;33519;50.712;7.124;2023-04-25T04:41:39;6.10;99.90
46706;DHT22;33519;50.712;7.124;2023-04-25T04:44:06;6.00;99.90
46706;DHT22;33519;50.712;7.124;2023-04-25T04:46:36;6.10;99.90
46706;DHT22;33519;50.712;7.124;2023-04-25T04:49:11;6.10;99.90
46706;DHT22;33519;50.712;7.124;2023-04-25T04:51:39;6.10;99.90
46706;DHT22;33519;50.712;7.124;2023-04-25T04:54:11;6.10;99.90
46706;DHT22;33519;50.712;7.124;2023-04-25T04:56:37;6.10;99.90
46706;DHT22;33519;50.712;7.124;2023-04-25T04:59:04;6.10;99.90
46706;DHT22;33519;50.712;7.124;2023-04-25T05:01:31;6.10;99.90
46706;DHT22;33519;50.712;7.124;2023-04-25T05:03:58;6.10;99.90
46706;DHT22;33519;50.712;7.124;2023-04-25T05:06:27;6.20;99.90
46706;DHT22;33519;50.712;7.124;2023-04-25T05:08:55;6.20;99.90
46706;DHT22;33519;50.712;7.124;2023-04-25T05:11:22;6.20;99.90
46706;DHT22;33519;50.712;7.124;2023-04-25T05:13:50;6.30;99.90
46706;DHT22;33519;50.712;7.124;2023-04-25T05:16:18;6.30;99.90
46706;DHT22;33519;50.712;7.124;2023-04-25T05:18:44;6.40;99.90
46706;DHT22;33519;50.712;7.124;2023-04-25T05:21:11;6.30;99.90
46706;DHT22;33519;50.712;7.124;2023-04-25T05:23:38;6.40;99.90
46706;DHT22;33519;50.712;7.124;2023-04-25T05:26:04;6.40;99.90
46706;DHT22;33519;50.712;7.124;2023-04-25T05:28:31;6.40;99.90
46706;DHT22;33519;50.712;7.124;2023-04-25T05:30:58;6.50;99.90
46706;DHT22;33519;50.712;7.124;2023-04-25T05:33:24;6.50;99.90
46706;DHT22;33519;50.712;7.124;2023-04-25T05:35:57;6.50;99.90
46706;DHT22;33519;50.712;7.124;2023-04-25T05:38:23;6.60;99.90
46706;DHT22;33519;50.712;7.124;2023-04-25T05:40:50;6.50;99.90
46706;DHT22;33519;50.712;7.124;2023-04-25T05:43:16;6.60;99.90
46706;DHT22;33519;50.712;7.124;2023-04-25T05:45:43;6.60;99.90
46706;DHT22;33519;50.712;7.124;2023-04-25T05:48:09;6.70;99.90
46706;DHT22;33519;50.712;7.124;2023-04-25T05:50:36;6.70;99.90
46706;DHT22;33519;50.712;7.124;2023-04-25T05:53:02;6.60;99.90
46706;DHT22;33519;50.712;7.124;2023-04-25T05:55:29;6.70;99.90
46706;DHT22;33519;50.712;7.124;2023-04-25T05:57:56;6.70;99.90
46706;DHT22;33519;50.712;7.124;2023-04-25T06:00:22;6.70;99.90
46706;DHT22;33519;50.712;7.124;2023-04-25T06:02:50;6.80;99.90
46706;DHT22;33519;50.712;7.124;2023-04-25T06:05:16;6.90;99.90
46706;DHT22;33519;50.712;7.124;2023-04-25T06:07:43;6.90;99.90
46706;DHT22;33519;50.712;7.124;2023-04-25T06:10:10;6.90;99.90
46706;DHT22;33519;50.712;7.124;2023-04-25T06:12:37;7.00;99.90
46706;DHT22;33519;50.712;7.124;2023-04-25T06:15:05;6.90;99.90
46706;DHT22;33519;50.712;7.124;2023-04-25T06:17:52;7.00;99.90
46706;DHT22;33519;50.712;7.124;2023-04-25T06:20:19;7.10;99.90
46706;DHT22;33519;50.712;7.124;2023-04-25T06:22:49;7.20;99.90
46706;DHT22;33519;50.712;7.124;2023-04-25T06:25:16;7.10;99.90
46706;DHT22;33519;50.712;7.124;2023-04-25T06:27:43;7.20;99.90
46706;DHT22;33519;50.712;7.124;2023-04-25T06:30:10;7.20;99.90
46706;DHT22;33519;50.712;7.124;2023-04-25T06:32:39;7.30;99.90
46706;DHT22;33519;50.712;7.124;2023-04-25T06:35:06;7.40;99.90
46706;DHT22;33519;50.712;7.124;2023-04-25T06:37:32;7.30;99.90
46706;DHT22;33519;50.712;7.124;2023-04-25T06:39:59;7.30;99.90
46706;DHT22;33519;50.712;7.124;2023-04-25T06:42:26;7.30;99.90
46706;DHT22;33519;50.712;7.124;2023-04-25T06:44:52;7.30;99.90
46706;DHT22;33519;50.712;7.124;2023-04-25T06:47:19;7.30;99.90
46706;DHT22;33519;50.712;7.124;2023-04-25T06:49:45;7.30;99.90
46706;DHT22;33519;50.712;7.124;2023-04-25T06:52:12;7.40;99.90
46706;DHT22;33519;50.712;7.124;2023-04-25T06:54:38;7.50;99.90
46706;DHT22;33519;50.712;7.124;2023-04-25T06:57:05;7.50;99.90
46706;DHT22;33519;50.712;7.124;2023-04-25T06:59:32;7.60;99.90
46706;DHT22;33519;50.712;7.124;2023-04-25T07:01:59;7.80;99.90
46706;DHT22;33519;50.712;7.124;2023-04-25T07:04:25;8.00;99.90
46706;DHT22;33519;50.712;7.124;2023-04-25T07:06:53;8.10;99.90
46706;DHT22;33519;50.712;7.124;2023-04-25T07:09:21;8.10;99.90
46706;DHT22;33519;50.712;7.124;2023-04-25T07:11:47;8.10;99.90
46706;DHT22;33519;50.712;7.124;2023-04-25T07:14:14;8.40;99.90
46706;DHT22;33519;50.712;7.124;2023-04-25T07:16:41;8.30;99.90
46706;DHT22;33519;50.712;7.124;2023-04-25T07:19:08;8.30;99.90
46706;DHT22;33519;50.712;7.124;2023-04-25T07:21:34;8.10;99.90
46706;DHT22;33519;50.712;7.124;2023-04-25T07:24:02;8.20;99.90
46706;DHT22;33519;50.712;7.124;2023-04-25T07:26:29;8.20;99.90
46706;DHT22;33519;50.712;7.124;2023-04-25T07:28:55;8.10;99.90
46706;DHT22;33519;50.712;7.124;2023-04-25T07:31:22;8.00;99.90
46706;DHT22;33519;50.712;7.124;2023-04-25T07:33:49;8.00;99.90
46706;DHT22;33519;50.712;7.124;2023-04-25T07:36:16;8.10;99.90
46706;DHT22;33519;50.712;7.124;2023-04-25T07:38:42;8.30;99.90
46706;DHT22;33519;50.712;7.124;2023-04-25T07:41:09;8.40;99.90
46706;DHT22;33519;50.712;7.124;2023-04-25T07:43:35;8.70;99.90
46706;DHT22;33519;50.712;7.124;2023-04-25T07:46:02;8.80;99.90
46706;DHT22;33519;50.712;7.124;2023-04-25T07:48:29;8.50;99.90
46706;DHT22;33519;50.712;7.124;2023-04-25T07:50:56;8.50;99.90
46706;DHT22;33519;50.712;7.124;2023-04-25T07:53:22;8.50;99.90
46706;DHT22;33519;50.712;7.124;2023-04-25T07:55:49;8.60;99.90
46706;DHT22;33519;50.712;7.124;2023-04-25T07:58:16;8.80;99.90
46706;DHT22;33519;50.712;7.124;2023-04-25T08:00:47;8.90;99.90
46706;DHT22;33519;50.712;7.124;2023-04-25T08:03:14;9.10;99.90
46706;DHT22;33519;50.712;7.124;2023-04-25T08:05:41;9.30;99.90
46706;DHT22;33519;50.712;7.124;2023-04-25T08:08:08;9.40;99.90
46706;DHT22;33519;50.712;7.124;2023-04-25T08:10:35;9.20;99.90
46706;DHT22;33519;50.712;7.124;2023-04-25T08:13:01;9.30;99.90
46706;DHT22;33519;50.712;7.124;2023-04-25T08:15:28;9.10;99.90
46706;DHT22;33519;50.712;7.124;2023-04-25T08:17:55;9.30;99.90
46706;DHT22;33519;50.712;7.124;2023-04-25T08:20:22;9.50;99.90
46706;DHT22;33519;50.712;7.124;2023-04-25T08:22:49;9.10;99.90
46706;DHT22;33519;50.712;7.124;2023-04-25T08:25:15;9.00;99.90
46706;DHT22;33519;50.712;7.124;2023-04-25T08:27:42;9.20;99.90
46706;DHT22;33519;50.712;7.124;2023-04-25T08:30:09;9.10;99.90
46706;DHT22;33519;50.712;7.124;2023-04-25T08:32:36;9.40;99.90
46706;DHT22;33519;50.712;7.124;2023-04-25T08:35:05;9.10;99.90
46706;DHT22;33519;50.712;7.124;2023-04-25T08:37:33;9.20;99.90
46706;DHT22;33519;50.712;7.124;2023-04-25T08:39:59;9.00;99.90
46706;DHT22;33519;50.712;7.124;2023-04-25T08:42:26;8.80;99.90
46706;DHT22;33519;50.712;7.124;2023-04-25T08:44:53;8.80;99.90
46706;DHT22;33519;50.712;7.124;2023-04-25T08:47:21;8.60;99.90
46706;DHT22;33519;50.712;7.124;2023-04-25T08:49:48;8.50;99.90
46706;DHT22;33519;50.712;7.124;2023-04-25T08:52:16;8.50;99.90
46706;DHT22;33519;50.712;7.124;2023-04-25T08:54:43;8.50;99.90
46706;DHT22;33519;50.712;7.124;2023-04-25T08:57:13;8.40;99.90
46706;DHT22;33519;50.712;7.124;2023-04-25T08:59:41;8.40;99.90
46706;DHT22;33519;50.712;7.124;2023-04-25T09:02:12;8.50;99.90
46706;DHT22;33519;50.712;7.124;2023-04-25T09:04:44;8.80;99.90
46706;DHT22;33519;50.712;7.124;2023-04-25T09:07:11;9.00;99.90
46706;DHT22;33519;50.712;7.124;2023-04-25T09:09:38;9.20;99.90
46706;DHT22;33519;50.712;7.124;2023-04-25T09:12:05;9.10;99.90
46706;DHT22;33519;50.712;7.124;2023-04-25T09:14:34;9.20;99.90
46706;DHT22;33519;50.712;7.124;2023-04-25T09:17:01;9.80;99.90
46706;DHT22;33519;50.712;7.124;2023-04-25T09:19:33;10.50;99.90
46706;DHT22;33519;50.712;7.124;2023-04-25T09:22:06;11.10;99.90
46706;DHT22;33519;50.712;7.124;2023-04-25T09:27:04;11.40;97.20
46706;DHT22;33519;50.712;7.124;2023-04-25T09:29:31;11.30;98.30
46706;DHT22;33519;50.712;7.124;2023-04-25T09:34:41;11.20;96.00
46706;DHT22;33519;50.712;7.124;2023-04-25T09:37:09;11.40;95.70
46706;DHT22;33519;50.712;7.124;2023-04-25T09:39:36;10.40;96.50
46706;DHT22;33519;50.712;7.124;2023-04-25T09:42:03;10.40;98.40
46706;DHT22;33519;50.712;7.124;2023-04-25T09:44:31;10.30;95.40
46706;DHT22;33519;50.712;7.124;2023-04-25T09:46:59;10.50;95.80
46706;DHT22;33519;50.712;7.124;2023-04-25T09:49:27;10.40;96.50
46706;DHT22;33519;50.712;7.124;2023-04-25T09:51:54;10.20;95.80
46706;DHT22;33519;50.712;7.124;2023-04-25T09:54:25;10.00;95.10
46706;DHT22;33519;50.712;7.124;2023-04-25T09:56:52;10.30;95.30
46706;DHT22;33519;50.712;7.124;2023-04-25T09:59:22;10.50;94.40
46706;DHT22;33519;50.712;7.124;2023-04-25T10:01:49;10.30;94.20
46706;DHT22;33519;50.712;7.124;2023-04-25T10:04:19;10.20;95.20
46706;DHT22;33519;50.712;7.124;2023-04-25T10:06:48;10.00;96.30
46706;DHT22;33519;50.712;7.124;2023-04-25T10:09:15;10.20;96.60
46706;DHT22;33519;50.712;7.124;2023-04-25T10:11:44;10.30;97.10
46706;DHT22;33519;50.712;7.124;2023-04-25T10:14:12;10.50;96.00
46706;DHT22;33519;50.712;7.124;2023-04-25T10:16:39;10.50;94.50
46706;DHT22;33519;50.712;7.124;2023-04-25T10:19:07;10.80;95.00
46706;DHT22;33519;50.712;7.124;2023-04-25T10:21:33;11.00;93.40
46706;DHT22;33519;50.712;7.124;2023-04-25T10:24:00;10.70;94.00
46706;DHT22;33519;50.712;7.124;2023-04-25T10:26:27;10.60;94.60
46706;DHT22;33519;50.712;7.124;2023-04-25T10:29:03;10.50;93.60
46706;DHT22;33519;50.712;7.124;2023-04-25T10:31:30;10.20;94.20
46706;DHT22;33519;50.712;7.124;2023-04-25T10:33:58;9.90;95.40
46706;DHT22;33519;50.712;7.124;2023-04-25T10:36:25;10.10;95.30
46706;DHT22;33519;50.712;7.124;2023-04-25T10:38:53;10.10;94.70
46706;DHT22;33519;50.712;7.124;2023-04-25T10:41:21;10.30;94.60
46706;DHT22;33519;50.712;7.124;2023-04-25T10:43:50;10.80;94.30
46706;DHT22;33519;50.712;7.124;2023-04-25T10:46:25;11.10;94.40
46706;DHT22;33519;50.712;7.124;2023-04-25T10:48:53;11.40;92.60
46706;DHT22;33519;50.712;7.124;2023-04-25T10:53:52;12.40;92.70
46706;DHT22;33519;50.712;7.124;2023-04-25T10:56:23;11.20;93.70
46706;DHT22;33519;50.712;7.124;2023-04-25T10:58:51;10.70;95.40
46706;DHT22;33519;50.712;7.124;2023-04-25T11:01:21;10.50;96.40
46706;DHT22;33519;50.712;7.124;2023-04-25T11:03:47;10.30;97.10
46706;DHT22;33519;50.712;7.124;2023-04-25T11:06:26;10.00;96.20
46706;DHT22;33519;50.712;7.124;2023-04-25T11:08:55;9.90;96.50
46706;DHT22;33519;50.712;7.124;2023-04-25T11:11:22;9.70;96.60
46706;DHT22;33519;50.712;7.124;2023-04-25T11:13:49;9.90;97.70
46706;DHT22;33519;50.712;7.124;2023-04-25T11:16:16;10.10;96.60
46706;DHT22;33519;50.712;7.124;2023-04-25T11:18:53;10.10;96.50
46706;DHT22;33519;50.712;7.124;2023-04-25T11:23:52;10.70;95.60
46706;DHT22;33519;50.712;7.124;2023-04-25T11:26:19;11.60;95.10
46706;DHT22;33519;50.712;7.124;2023-04-25T11:28:47;12.70;93.20
46706;DHT22;33519;50.712;7.124;2023-04-25T11:31:15;13.00;93.00
46706;DHT22;33519;50.712;7.124;2023-04-25T11:33:42;12.90;91.50
46706;DHT22;33519;50.712;7.124;2023-04-25T11:36:08;12.80;92.10
46706;DHT22;33519;50.712;7.124;2023-04-25T11:38:35;12.00;93.10
46706;DHT22;33519;50.712;7.124;2023-04-25T11:41:02;13.40;92.70
46706;DHT22;33519;50.712;7.124;2023-04-25T11:43:32;12.60;92.00
46706;DHT22;33519;50.712;7.124;2023-04-25T11:46:00;11.20;94.00
46706;DHT22;33519;50.712;7.124;2023-04-25T11:48:27;10.50;96.00
46706;DHT22;33519;50.712;7.124;2023-04-25T11:50:53;10.30;96.20
46706;DHT22;33519;50.712;7.124;2023-04-25T11:53:20;10.40;96.80
46706;DHT22;33519;50.712;7.124;2023-04-25T11:55:46;10.40;96.70
46706;DHT22;33519;50.712;7.124;2023-04-25T11:58:14;10.20;97.40
46706;DHT22;33519;50.712;7.124;2023-04-25T12:00:41;10.00;98.50
46706;DHT22;33519;50.712;7.124;2023-04-25T12:03:16;9.70;98.40
46706;DHT22;33519;50.712;7.124;2023-04-25T12:05:44;9.80;99.40
46706;DHT22;33519;50.712;7.124;2023-04-25T12:08:12;9.90;99.20
46706;DHT22;33519;50.712;7.124;2023-04-25T12:10:39;9.70;99.60
46706;DHT22;33519;50.712;7.124;2023-04-25T12:13:25;9.70;98.20
46706;DHT22;33519;50.712;7.124;2023-04-25T12:15:54;9.80;97.80
46706;DHT22;33519;50.712;7.124;2023-04-25T12:18:22;10.20;97.60
46706;DHT22;33519;50.712;7.124;2023-04-25T12:20:49;10.40;95.10
46706;DHT22;33519;50.712;7.124;2023-04-25T12:23:16;10.70;94.80
46706;DHT22;33519;50.712;7.124;2023-04-25T12:25:43;10.80;93.60
46706;DHT22;33519;50.712;7.124;2023-04-25T12:28:20;10.80;92.60
46706;DHT22;33519;50.712;7.124;2023-04-25T12:31:00;10.90;93.20
46706;DHT22;33519;50.712;7.124;2023-04-25T12:33:28;11.40;91.60
46706;DHT22;33519;50.712;7.124;2023-04-25T12:35:54;11.80;91.00
46706;DHT22;33519;50.712;7.124;2023-04-25T12:38:22;11.80;91.10
46706;DHT22;33519;50.712;7.124;2023-04-25T12:40:49;11.60;91.50
46706;DHT22;33519;50.712;7.124;2023-04-25T12:43:16;11.40;91.60
46706;DHT22;33519;50.712;7.124;2023-04-25T12:45:53;11.30;91.90
46706;DHT22;33519;50.712;7.124;2023-04-25T12:48:20;11.40;92.30
46706;DHT22;33519;50.712;7.124;2023-04-25T12:50:47;11.40;92.00
46706;DHT22;33519;50.712;7.124;2023-04-25T12:53:20;11.10;92.10
46706;DHT22;33519;50.712;7.124;2023-04-25T12:55:47;11.40;92.20
46706;DHT22;33519;50.712;7.124;2023-04-25T12:58:15;11.80;92.80
46706;DHT22;33519;50.712;7.124;2023-04-25T13:00:42;12.70;92.50
46706;DHT22;33519;50.712;7.124;2023-04-25T13:03:09;13.80;90.30
46706;DHT22;33519;50.712;7.124;2023-04-25T13:05:38;14.10;87.50
46706;DHT22;33519;50.712;7.124;2023-04-25T13:08:04;15.10;85.70
46706;DHT22;33519;50.712;7.124;2023-04-25T13:10:31;16.20;80.40
46706;DHT22;33519;50.712;7.124;2023-04-25T13:13:00;14.50;83.10
46706;DHT22;33519;50.712;7.124;2023-04-25T13:15:27;14.70;83.30
46706;DHT22;33519;50.712;7.124;2023-04-25T13:17:53;14.00;83.60
46706;DHT22;33519;50.712;7.124;2023-04-25T13:20:20;13.50;84.60
46706;DHT22;33519;50.712;7.124;2023-04-25T13:22:48;13.70;85.50
46706;DHT22;33519;50.712;7.124;2023-04-25T13:25:15;13.20;85.90
46706;DHT22;33519;50.712;7.124;2023-04-25T13:27:42;13.00;85.80
46706;DHT22;33519;50.712;7.124;2023-04-25T13:30:10;12.70;87.50
46706;DHT22;33519;50.712;7.124;2023-04-25T13:32:37;12.50;87.30
46706;DHT22;33519;50.712;7.124;2023-04-25T13:35:04;12.40;84.20
46706;DHT22;33519;50.712;7.124;2023-04-25T13:37:35;11.50;86.00
46706;DHT22;33519;50.712;7.124;2023-04-25T13:40:03;11.30;88.70
46706;DHT22;33519;50.712;7.124;2023-04-25T13:42:31;11.30;89.60
46706;DHT22;33519;50.712;7.124;2023-04-25T13:44:58;11.10;90.50
46706;DHT22;33519;50.712;7.124;2023-04-25T13:47:25;11.10;90.50
46706;DHT22;33519;50.712;7.124;2023-04-25T13:49:51;10.60;90.60
46706;DHT22;33519;50.712;7.124;2023-04-25T13:52:21;10.60;90.80
46706;DHT22;33519;50.712;7.124;2023-04-25T13:54:47;10.60;91.10
46706;DHT22;33519;50.712;7.124;2023-04-25T13:57:14;10.70;92.10
46706;DHT22;33519;50.712;7.124;2023-04-25T13:59:41;10.70;92.70
46706;DHT22;33519;50.712;7.124;2023-04-25T14:02:07;10.70;92.90
46706;DHT22;33519;50.712;7.124;2023-04-25T14:04:34;10.70;93.00
46706;DHT22;33519;50.712;7.124;2023-04-25T14:07:02;10.40;93.30
46706;DHT22;33519;50.712;7.124;2023-04-25T14:09:28;10.40;93.50
46706;DHT22;33519;50.712;7.124;2023-04-25T14:11:55;10.50;92.30
46706;DHT22;33519;50.712;7.124;2023-04-25T14:14:22;10.80;92.30
46706;DHT22;33519;50.712;7.124;2023-04-25T14:16:49;10.80;91.80
46706;DHT22;33519;50.712;7.124;2023-04-25T14:19:17;10.70;92.20
46706;DHT22;33519;50.712;7.124;2023-04-25T14:24:21;10.60;92.10
46706;DHT22;33519;50.712;7.124;2023-04-25T14:26:48;10.50;91.50
46706;DHT22;33519;50.712;7.124;2023-04-25T14:29:14;10.80;91.20
46706;DHT22;33519;50.712;7.124;2023-04-25T14:31:41;10.90;90.80
46706;DHT22;33519;50.712;7.124;2023-04-25T14:34:08;10.90;90.00
46706;DHT22;33519;50.712;7.124;2023-04-25T14:36:35;11.10;89.50
46706;DHT22;33519;50.712;7.124;2023-04-25T14:39:02;11.00;89.80
46706;DHT22;33519;50.712;7.124;2023-04-25T14:41:29;11.20;89.10
46706;DHT22;33519;50.712;7.124;2023-04-25T14:43:57;11.20;89.40
46706;DHT22;33519;50.712;7.124;2023-04-25T14:46:24;12.00;91.00
46706;DHT22;33519;50.712;7.124;2023-04-25T14:48:51;13.40;87.50
46706;DHT22;33519;50.712;7.124;2023-04-25T14:51:17;14.50;82.70
46706;DHT22;33519;50.712;7.124;2023-04-25T14:53:44;15.70;75.30
46706;DHT22;33519;50.712;7.124;2023-04-25T14:56:11;15.50;74.90
46706;DHT22;33519;50.712;7.124;2023-04-25T14:58:39;16.00;73.30
46706;DHT22;33519;50.712;7.124;2023-04-25T15:01:06;16.50;72.40
46706;DHT22;33519;50.712;7.124;2023-04-25T15:03:33;15.40;75.00
46706;DHT22;33519;50.712;7.124;2023-04-25T15:06:00;15.70;75.30
46706;DHT22;33519;50.712;7.124;2023-04-25T15:08:27;15.50;74.20
46706;DHT22;33519;50.712;7.124;2023-04-25T15:10:53;14.20;75.20
46706;DHT22;33519;50.712;7.124;2023-04-25T15:13:20;13.20;77.30
46706;DHT22;33519;50.712;7.124;2023-04-25T15:15:47;12.70;74.20
46706;DHT22;33519;50.712;7.124;2023-04-25T15:18:18;12.50;76.10
46706;DHT22;33519;50.712;7.124;2023-04-25T15:20:45;12.10;76.90
46706;DHT22;33519;50.712;7.124;2023-04-25T15:23:11;11.80;78.00
46706;DHT22;33519;50.712;7.124;2023-04-25T15:25:38;11.20;80.30
46706;DHT22;33519;50.712;7.124;2023-04-25T15:28:04;11.20;80.20
46706;DHT22;33519;50.712;7.124;2023-04-25T15:30:31;11.30;79.90
46706;DHT22;33519;50.712;7.124;2023-04-25T15:32:57;11.20;80.00
46706;DHT22;33519;50.712;7.124;2023-04-25T15:35:24;11.60;78.20
46706;DHT22;33519;50.712;7.124;2023-04-25T15:37:51;11.80;78.00
46706;DHT22;33519;50.712;7.124;2023-04-25T15:40:17;12.70;76.00
46706;DHT22;33519;50.712;7.124;2023-04-25T15:42:46;12.70;74.50
46706;DHT22;33519;50.712;7.124;2023-04-25T15:45:14;13.20;74.90
46706;DHT22;33519;50.712;7.124;2023-04-25T15:47:43;12.70;74.90
46706;DHT22;33519;50.712;7.124;2023-04-25T15:50:10;12.50;74.50
46706;DHT22;33519;50.712;7.124;2023-04-25T15:52:37;11.80;76.20
46706;DHT22;33519;50.712;7.124;2023-04-25T15:55:04;12.00;76.80